sensor_id;sensor_type;location;lat;lon;timestamp;temperature;humidity
12408;DHT22;6268;48.188;17.134;2023-05-29T00:00:49;19.00;85.30
12408;DHT22;6268;48.188;17.134;2023-05-29T00:03:18;19.00;85.70
12408;DHT22;6268;48.188;17.134;2023-05-29T00:05:47;19.00;86.50
12408;DHT22;6268;48.188;17.134;2023-05-29T00:08:16;18.90;87.50
12408;DHT22;6268;48.188;17.134;2023-05-29T00:10:46;18.90;88.60
12408;DHT22;6268;48.188;17.134;2023-05-29T00:13:15;18.90;89.80
12408;DHT22;6268;48.188;17.134;2023-05-29T00:15:43;18.80;89.60
12408;DHT22;6268;48.188;17.134;2023-05-29T00:18:12;18.70;90.30
12408;DHT22;6268;48.188;17.134;2023-05-29T00:20:40;18.70;90.70
12408;DHT22;6268;48.188;17.134;2023-05-29T00:23:09;18.70;90.50
12408;DHT22;6268;48.188;17.134;2023-05-29T00:25:37;18.70;90.80
12408;DHT22;6268;48.188;17.134;2023-05-29T00:28:09;18.60;91.20
12408;DHT22;6268;48.188;17.134;2023-05-29T00:30:39;18.60;91.30
12408;DHT22;6268;48.188;17.134;2023-05-29T00:33:07;18.60;91.00
12408;DHT22;6268;48.188;17.134;2023-05-29T00:35:36;18.60;91.10
12408;DHT22;6268;48.188;17.134;2023-05-29T00:38:04;18.60;91.50
12408;DHT22;6268;48.188;17.134;2023-05-29T00:40:33;18.60;91.70
12408;DHT22;6268;48.188;17.134;2023-05-29T00:43:01;18.50;91.10
12408;DHT22;6268;48.188;17.134;2023-05-29T00:45:31;18.50;91.10
12408;DHT22;6268;48.188;17.134;2023-05-29T00:48:03;18.50;91.20
12408;DHT22;6268;48.188;17.134;2023-05-29T00:50:32;18.50;91.20
12408;DHT22;6268;48.188;17.134;2023-05-29T00:53:01;18.50;91.70
12408;DHT22;6268;48.188;17.134;2023-05-29T00:55:31;18.50;92.20
12408;DHT22;6268;48.188;17.134;2023-05-29T00:58:00;18.50;92.00
12408;DHT22;6268;48.188;17.134;2023-05-29T01:00:30;18.40;92.50
12408;DHT22;6268;48.188;17.134;2023-05-29T01:03:00;18.40;92.70
12408;DHT22;6268;48.188;17.134;2023-05-29T01:05:33;18.40;92.90
12408;DHT22;6268;48.188;17.134;2023-05-29T01:08:02;18.40;93.70
12408;DHT22;6268;48.188;17.134;2023-05-29T01:10:31;18.40;94.20
12408;DHT22;6268;48.188;17.134;2023-05-29T01:13:04;18.40;94.50
12408;DHT22;6268;48.188;17.134;2023-05-29T01:15:43;18.40;94.70
12408;DHT22;6268;48.188;17.134;2023-05-29T01:18:27;18.30;95.00
12408;DHT22;6268;48.188;17.134;2023-05-29T01:21:03;18.20;95.90
12408;DHT22;6268;48.188;17.134;2023-05-29T01:26:41;18.10;97.30
12408;DHT22;6268;48.188;17.134;2023-05-29T01:29:14;18.10;97.80
12408;DHT22;6268;48.188;17.134;2023-05-29T01:31:44;18.10;98.00
12408;DHT22;6268;48.188;17.134;2023-05-29T01:34:14;18.10;98.80
12408;DHT22;6268;48.188;17.134;2023-05-29T01:36:42;18.10;99.30
12408;DHT22;6268;48.188;17.134;2023-05-29T01:39:11;18.00;99.90
12408;DHT22;6268;48.188;17.134;2023-05-29T01:41:41;18.00;99.90
12408;DHT22;6268;48.188;17.134;2023-05-29T01:44:10;18.00;99.90
12408;DHT22;6268;48.188;17.134;2023-05-29T01:46:40;17.90;99.90
12408;DHT22;6268;48.188;17.134;2023-05-29T01:49:11;17.80;99.90
12408;DHT22;6268;48.188;17.134;2023-05-29T01:51:40;17.80;99.90
12408;DHT22;6268;48.188;17.134;2023-05-29T01:54:09;17.80;99.90
12408;DHT22;6268;48.188;17.134;2023-05-29T01:56:39;17.70;99.90
12408;DHT22;6268;48.188;17.134;2023-05-29T01:59:08;17.70;99.90
12408;DHT22;6268;48.188;17.134;2023-05-29T02:01:39;17.70;99.90
12408;DHT22;6268;48.188;17.134;2023-05-29T02:04:07;17.70;99.90
12408;DHT22;6268;48.188;17.134;2023-05-29T02:06:36;17.60;99.90
12408;DHT22;6268;48.188;17.134;2023-05-29T02:09:05;17.60;99.90
12408;DHT22;6268;48.188;17.134;2023-05-29T02:11:34;17.60;99.90
12408;DHT22;6268;48.188;17.134;2023-05-29T02:14:04;17.60;99.90
12408;DHT22;6268;48.188;17.134;2023-05-29T02:16:32;17.50;99.90
12408;DHT22;6268;48.188;17.134;2023-05-29T02:19:02;17.50;99.90
12408;DHT22;6268;48.188;17.134;2023-05-29T02:21:30;17.50;99.90
12408;DHT22;6268;48.188;17.134;2023-05-29T02:23:59;17.50;99.90
12408;DHT22;6268;48.188;17.134;2023-05-29T02:26:28;17.50;99.90
12408;DHT22;6268;48.188;17.134;2023-05-29T02:28:56;17.40;99.90
12408;DHT22;6268;48.188;17.134;2023-05-29T02:31:26;17.40;99.90
12408;DHT22;6268;48.188;17.134;2023-05-29T02:33:55;17.30;99.90
12408;DHT22;6268;48.188;17.134;2023-05-29T02:36:23;17.30;99.90
12408;DHT22;6268;48.188;17.134;2023-05-29T02:38:52;17.30;99.90
12408;DHT22;6268;48.188;17.134;2023-05-29T02:41:21;17.30;99.90
12408;DHT22;6268;48.188;17.134;2023-05-29T02:43:49;17.30;99.90
12408;DHT22;6268;48.188;17.134;2023-05-29T02:46:18;17.30;99.90
12408;DHT22;6268;48.188;17.134;2023-05-29T02:48:48;17.30;99.90
12408;DHT22;6268;48.188;17.134;2023-05-29T02:51:17;17.30;99.90
12408;DHT22;6268;48.188;17.134;2023-05-29T02:53:45;17.30;99.90
12408;DHT22;6268;48.188;17.134;2023-05-29T02:56:15;17.20;99.90
12408;DHT22;6268;48.188;17.134;2023-05-29T02:58:43;17.20;99.90
12408;DHT22;6268;48.188;17.134;2023-05-29T03:01:12;17.10;99.90
12408;DHT22;6268;48.188;17.134;2023-05-29T03:03:40;17.10;99.90
12408;DHT22;6268;48.188;17.134;2023-05-29T03:06:11;17.00;99.90
12408;DHT22;6268;48.188;17.134;2023-05-29T03:08:40;17.00;99.90
12408;DHT22;6268;48.188;17.134;2023-05-29T03:11:12;17.00;99.90
12408;DHT22;6268;48.188;17.134;2023-05-29T03:13:42;17.00;99.90
12408;DHT22;6268;48.188;17.134;2023-05-29T03:16:10;17.00;99.90
12408;DHT22;6268;48.188;17.134;2023-05-29T03:18:39;16.90;99.90
12408;DHT22;6268;48.188;17.134;2023-05-29T03:21:09;16.90;99.90
12408;DHT22;6268;48.188;17.134;2023-05-29T03:23:38;16.90;99.90
12408;DHT22;6268;48.188;17.134;2023-05-29T03:26:07;16.90;99.90
12408;DHT22;6268;48.188;17.134;2023-05-29T03:28:35;16.90;99.90
12408;DHT22;6268;48.188;17.134;2023-05-29T03:31:04;16.90;99.90
12408;DHT22;6268;48.188;17.134;2023-05-29T03:33:32;17.00;99.90
12408;DHT22;6268;48.188;17.134;2023-05-29T03:36:01;17.00;99.90
12408;DHT22;6268;48.188;17.134;2023-05-29T03:38:31;17.10;99.90
12408;DHT22;6268;48.188;17.134;2023-05-29T03:40:59;17.20;99.90
12408;DHT22;6268;48.188;17.134;2023-05-29T03:43:28;17.30;99.90
12408;DHT22;6268;48.188;17.134;2023-05-29T03:45:56;17.40;99.90
12408;DHT22;6268;48.188;17.134;2023-05-29T03:48:25;17.50;99.90
12408;DHT22;6268;48.188;17.134;2023-05-29T03:50:53;17.60;99.90
12408;DHT22;6268;48.188;17.134;2023-05-29T03:53:22;17.70;99.90
12408;DHT22;6268;48.188;17.134;2023-05-29T03:55:52;17.90;99.90
12408;DHT22;6268;48.188;17.134;2023-05-29T03:58:21;18.00;99.90
12408;DHT22;6268;48.188;17.134;2023-05-29T04:00:49;18.20;99.90
12408;DHT22;6268;48.188;17.134;2023-05-29T04:03:18;18.30;99.90
12408;DHT22;6268;48.188;17.134;2023-05-29T04:05:47;18.50;99.90
12408;DHT22;6268;48.188;17.134;2023-05-29T04:08:15;18.70;99.90
12408;DHT22;6268;48.188;17.134;2023-05-29T04:10:44;18.90;99.90
12408;DHT22;6268;48.188;17.134;2023-05-29T04:13:14;19.10;99.90
12408;DHT22;6268;48.188;17.134;2023-05-29T04:15:43;19.20;99.90
12408;DHT22;6268;48.188;17.134;2023-05-29T04:18:12;19.30;99.90
12408;DHT22;6268;48.188;17.134;2023-05-29T04:20:40;19.50;99.90
12408;DHT22;6268;48.188;17.134;2023-05-29T04:23:09;19.80;99.90
12408;DHT22;6268;48.188;17.134;2023-05-29T04:25:38;20.00;99.90
12408;DHT22;6268;48.188;17.134;2023-05-29T04:28:06;20.20;99.90
12408;DHT22;6268;48.188;17.134;2023-05-29T04:30:39;20.40;99.90
12408;DHT22;6268;48.188;17.134;2023-05-29T04:33:09;20.40;99.90
12408;DHT22;6268;48.188;17.134;2023-05-29T04:35:39;20.60;99.90
12408;DHT22;6268;48.188;17.134;2023-05-29T04:38:10;21.00;99.90
12408;DHT22;6268;48.188;17.134;2023-05-29T04:40:38;21.20;99.90
12408;DHT22;6268;48.188;17.134;2023-05-29T04:43:07;21.60;99.90
12408;DHT22;6268;48.188;17.134;2023-05-29T04:45:36;21.80;99.00
12408;DHT22;6268;48.188;17.134;2023-05-29T04:48:06;21.70;99.00
12408;DHT22;6268;48.188;17.134;2023-05-29T04:50:35;21.90;99.90
12408;DHT22;6268;48.188;17.134;2023-05-29T04:53:06;22.10;99.90
12408;DHT22;6268;48.188;17.134;2023-05-29T04:55:34;22.40;99.00
12408;DHT22;6268;48.188;17.134;2023-05-29T04:58:03;22.70;97.70
12408;DHT22;6268;48.188;17.134;2023-05-29T05:00:31;22.80;96.30
12408;DHT22;6268;48.188;17.134;2023-05-29T05:03:00;23.20;95.70
12408;DHT22;6268;48.188;17.134;2023-05-29T05:05:30;23.50;93.80
12408;DHT22;6268;48.188;17.134;2023-05-29T05:08:00;23.90;92.30
12408;DHT22;6268;48.188;17.134;2023-05-29T05:10:28;24.40;90.50
12408;DHT22;6268;48.188;17.134;2023-05-29T05:12:57;24.80;89.40
12408;DHT22;6268;48.188;17.134;2023-05-29T05:15:25;25.40;85.50
12408;DHT22;6268;48.188;17.134;2023-05-29T05:17:54;26.00;81.60
12408;DHT22;6268;48.188;17.134;2023-05-29T05:20:24;26.60;77.00
12408;DHT22;6268;48.188;17.134;2023-05-29T05:22:54;26.90;74.40
12408;DHT22;6268;48.188;17.134;2023-05-29T05:25:24;27.30;72.20
12408;DHT22;6268;48.188;17.134;2023-05-29T05:27:52;27.40;70.50
12408;DHT22;6268;48.188;17.134;2023-05-29T05:30:21;27.80;68.90
12408;DHT22;6268;48.188;17.134;2023-05-29T05:32:49;28.30;67.30
12408;DHT22;6268;48.188;17.134;2023-05-29T05:35:18;29.00;65.20
12408;DHT22;6268;48.188;17.134;2023-05-29T05:37:46;29.60;63.30
12408;DHT22;6268;48.188;17.134;2023-05-29T05:40:16;29.60;61.70
12408;DHT22;6268;48.188;17.134;2023-05-29T05:42:45;29.70;61.10
12408;DHT22;6268;48.188;17.134;2023-05-29T05:45:13;29.40;60.60
12408;DHT22;6268;48.188;17.134;2023-05-29T05:47:42;29.30;62.00
12408;DHT22;6268;48.188;17.134;2023-05-29T05:50:10;29.00;62.30
12408;DHT22;6268;48.188;17.134;2023-05-29T05:52:39;28.90;62.40
12408;DHT22;6268;48.188;17.134;2023-05-29T05:55:08;28.60;62.40
12408;DHT22;6268;48.188;17.134;2023-05-29T05:57:38;28.50;62.00
12408;DHT22;6268;48.188;17.134;2023-05-29T06:00:07;28.40;60.10
12408;DHT22;6268;48.188;17.134;2023-05-29T06:02:38;28.20;60.30
12408;DHT22;6268;48.188;17.134;2023-05-29T06:05:10;28.10;60.20
12408;DHT22;6268;48.188;17.134;2023-05-29T06:07:38;28.20;60.20
12408;DHT22;6268;48.188;17.134;2023-05-29T06:10:07;28.30;60.40
12408;DHT22;6268;48.188;17.134;2023-05-29T06:12:37;28.50;60.30
12408;DHT22;6268;48.188;17.134;2023-05-29T06:15:07;28.60;60.50
12408;DHT22;6268;48.188;17.134;2023-05-29T06:17:36;28.80;60.80
12408;DHT22;6268;48.188;17.134;2023-05-29T06:20:05;29.10;60.00
12408;DHT22;6268;48.188;17.134;2023-05-29T06:22:37;29.10;59.50
12408;DHT22;6268;48.188;17.134;2023-05-29T06:25:07;29.20;59.30
12408;DHT22;6268;48.188;17.134;2023-05-29T06:27:37;29.30;59.20
12408;DHT22;6268;48.188;17.134;2023-05-29T06:30:07;29.60;59.30
12408;DHT22;6268;48.188;17.134;2023-05-29T06:32:36;29.60;58.60
12408;DHT22;6268;48.188;17.134;2023-05-29T06:35:05;29.40;57.60
12408;DHT22;6268;48.188;17.134;2023-05-29T06:37:34;29.40;57.90
12408;DHT22;6268;48.188;17.134;2023-05-29T06:40:03;29.70;57.70
12408;DHT22;6268;48.188;17.134;2023-05-29T06:42:33;29.80;56.50
12408;DHT22;6268;48.188;17.134;2023-05-29T06:45:03;29.60;56.70
12408;DHT22;6268;48.188;17.134;2023-05-29T06:47:31;29.80;56.50
12408;DHT22;6268;48.188;17.134;2023-05-29T06:50:00;30.00;57.40
12408;DHT22;6268;48.188;17.134;2023-05-29T06:52:28;30.30;55.80
12408;DHT22;6268;48.188;17.134;2023-05-29T06:54:57;30.30;55.90
12408;DHT22;6268;48.188;17.134;2023-05-29T06:57:26;30.40;55.60
12408;DHT22;6268;48.188;17.134;2023-05-29T06:59:54;30.70;55.80
12408;DHT22;6268;48.188;17.134;2023-05-29T07:02:24;30.90;55.40
12408;DHT22;6268;48.188;17.134;2023-05-29T07:04:53;30.90;54.60
12408;DHT22;6268;48.188;17.134;2023-05-29T07:07:23;30.90;54.40
12408;DHT22;6268;48.188;17.134;2023-05-29T07:09:51;30.80;54.00
12408;DHT22;6268;48.188;17.134;2023-05-29T07:12:22;30.90;54.40
12408;DHT22;6268;48.188;17.134;2023-05-29T07:14:50;31.10;53.60
12408;DHT22;6268;48.188;17.134;2023-05-29T07:17:19;31.40;53.40
12408;DHT22;6268;48.188;17.134;2023-05-29T07:19:49;31.90;52.20
12408;DHT22;6268;48.188;17.134;2023-05-29T07:22:18;31.80;52.20
12408;DHT22;6268;48.188;17.134;2023-05-29T07:24:46;31.70;53.00
12408;DHT22;6268;48.188;17.134;2023-05-29T07:27:15;31.80;54.00
12408;DHT22;6268;48.188;17.134;2023-05-29T07:29:43;32.10;53.60
12408;DHT22;6268;48.188;17.134;2023-05-29T07:32:12;32.40;53.50
12408;DHT22;6268;48.188;17.134;2023-05-29T07:34:40;32.60;53.50
12408;DHT22;6268;48.188;17.134;2023-05-29T07:37:13;32.90;53.10
12408;DHT22;6268;48.188;17.134;2023-05-29T07:39:41;32.90;52.30
12408;DHT22;6268;48.188;17.134;2023-05-29T07:42:10;33.00;52.40
12408;DHT22;6268;48.188;17.134;2023-05-29T07:44:39;33.20;52.00
12408;DHT22;6268;48.188;17.134;2023-05-29T07:47:09;33.20;51.90
12408;DHT22;6268;48.188;17.134;2023-05-29T07:49:37;33.30;51.90
12408;DHT22;6268;48.188;17.134;2023-05-29T07:52:06;33.20;51.90
12408;DHT22;6268;48.188;17.134;2023-05-29T07:54:36;33.20;51.90
12408;DHT22;6268;48.188;17.134;2023-05-29T07:57:05;33.00;52.10
12408;DHT22;6268;48.188;17.134;2023-05-29T07:59:37;33.00;52.20
12408;DHT22;6268;48.188;17.134;2023-05-29T08:02:07;33.00;52.20
12408;DHT22;6268;48.188;17.134;2023-05-29T08:04:35;32.90;51.90
12408;DHT22;6268;48.188;17.134;2023-05-29T08:07:05;32.80;52.00
12408;DHT22;6268;48.188;17.134;2023-05-29T08:09:33;32.80;52.50
12408;DHT22;6268;48.188;17.134;2023-05-29T08:12:03;33.00;52.60
12408;DHT22;6268;48.188;17.134;2023-05-29T08:14:32;33.20;51.80
12408;DHT22;6268;48.188;17.134;2023-05-29T08:17:01;33.50;51.50
12408;DHT22;6268;48.188;17.134;2023-05-29T08:19:29;33.70;51.40
12408;DHT22;6268;48.188;17.134;2023-05-29T08:21:58;33.80;51.00
12408;DHT22;6268;48.188;17.134;2023-05-29T08:24:26;33.90;50.70
12408;DHT22;6268;48.188;17.134;2023-05-29T08:26:55;34.00;50.80
12408;DHT22;6268;48.188;17.134;2023-05-29T08:29:25;34.00;50.80
12408;DHT22;6268;48.188;17.134;2023-05-29T08:31:53;34.10;50.70
12408;DHT22;6268;48.188;17.134;2023-05-29T08:34:22;34.30;49.50
12408;DHT22;6268;48.188;17.134;2023-05-29T08:36:51;34.50;48.90
12408;DHT22;6268;48.188;17.134;2023-05-29T08:39:22;34.40;49.30
12408;DHT22;6268;48.188;17.134;2023-05-29T08:41:59;34.60;49.30
12408;DHT22;6268;48.188;17.134;2023-05-29T08:44:31;34.70;48.80
12408;DHT22;6268;48.188;17.134;2023-05-29T08:47:02;34.80;48.40
12408;DHT22;6268;48.188;17.134;2023-05-29T08:49:41;34.80;48.50
12408;DHT22;6268;48.188;17.134;2023-05-29T08:52:15;34.90;48.50
12408;DHT22;6268;48.188;17.134;2023-05-29T08:54:44;35.00;49.00
12408;DHT22;6268;48.188;17.134;2023-05-29T08:57:13;35.00;47.90
12408;DHT22;6268;48.188;17.134;2023-05-29T08:59:44;35.10;47.80
12408;DHT22;6268;48.188;17.134;2023-05-29T09:02:14;35.20;48.20
12408;DHT22;6268;48.188;17.134;2023-05-29T09:04:42;35.10;48.40
12408;DHT22;6268;48.188;17.134;2023-05-29T09:07:15;34.80;48.20
12408;DHT22;6268;48.188;17.134;2023-05-29T09:09:44;34.30;49.20
12408;DHT22;6268;48.188;17.134;2023-05-29T09:12:13;34.40;49.20
12408;DHT22;6268;48.188;17.134;2023-05-29T09:14:45;34.40;49.00
12408;DHT22;6268;48.188;17.134;2023-05-29T09:17:14;34.60;49.00
12408;DHT22;6268;48.188;17.134;2023-05-29T09:19:43;34.60;48.50
12408;DHT22;6268;48.188;17.134;2023-05-29T09:22:13;34.50;49.10
12408;DHT22;6268;48.188;17.134;2023-05-29T09:24:46;34.50;48.80
12408;DHT22;6268;48.188;17.134;2023-05-29T09:27:15;34.50;48.60
12408;DHT22;6268;48.188;17.134;2023-05-29T09:29:46;34.60;48.90
12408;DHT22;6268;48.188;17.134;2023-05-29T09:32:16;34.70;48.90
12408;DHT22;6268;48.188;17.134;2023-05-29T09:34:45;34.70;49.10
12408;DHT22;6268;48.188;17.134;2023-05-29T09:37:14;34.90;48.80
12408;DHT22;6268;48.188;17.134;2023-05-29T09:39:45;34.80;48.30
12408;DHT22;6268;48.188;17.134;2023-05-29T09:42:15;34.80;48.30
12408;DHT22;6268;48.188;17.134;2023-05-29T09:44:49;34.80;49.40
12408;DHT22;6268;48.188;17.134;2023-05-29T09:47:19;34.80;48.60
12408;DHT22;6268;48.188;17.134;2023-05-29T09:49:48;34.80;48.50
12408;DHT22;6268;48.188;17.134;2023-05-29T09:52:21;34.60;48.10
12408;DHT22;6268;48.188;17.134;2023-05-29T09:54:50;34.40;48.60
12408;DHT22;6268;48.188;17.134;2023-05-29T09:57:20;34.40;48.90
12408;DHT22;6268;48.188;17.134;2023-05-29T09:59:52;34.60;48.80
12408;DHT22;6268;48.188;17.134;2023-05-29T10:02:21;34.70;48.00
12408;DHT22;6268;48.188;17.134;2023-05-29T10:04:49;34.60;48.30
12408;DHT22;6268;48.188;17.134;2023-05-29T10:07:25;34.60;48.20
12408;DHT22;6268;48.188;17.134;2023-05-29T10:09:59;34.80;47.90
12408;DHT22;6268;48.188;17.134;2023-05-29T10:12:29;34.90;47.90
12408;DHT22;6268;48.188;17.134;2023-05-29T10:15:02;35.00;48.00
12408;DHT22;6268;48.188;17.134;2023-05-29T10:17:34;35.10;47.60
12408;DHT22;6268;48.188;17.134;2023-05-29T10:20:05;35.10;47.20
12408;DHT22;6268;48.188;17.134;2023-05-29T10:22:40;35.20;47.40
12408;DHT22;6268;48.188;17.134;2023-05-29T10:25:09;35.20;47.50
12408;DHT22;6268;48.188;17.134;2023-05-29T10:27:39;35.20;47.40
12408;DHT22;6268;48.188;17.134;2023-05-29T10:30:15;35.20;46.50
12408;DHT22;6268;48.188;17.134;2023-05-29T10:32:59;35.20;47.10
12408;DHT22;6268;48.188;17.134;2023-05-29T10:35:39;35.40;47.40
12408;DHT22;6268;48.188;17.134;2023-05-29T10:38:11;35.40;47.30
12408;DHT22;6268;48.188;17.134;2023-05-29T10:40:41;35.50;46.40
12408;DHT22;6268;48.188;17.134;2023-05-29T10:43:30;35.50;45.90
12408;DHT22;6268;48.188;17.134;2023-05-29T10:46:01;35.30;46.20
12408;DHT22;6268;48.188;17.134;2023-05-29T10:48:43;35.10;46.90
12408;DHT22;6268;48.188;17.134;2023-05-29T10:51:26;34.80;46.70
12408;DHT22;6268;48.188;17.134;2023-05-29T10:53:55;34.60;47.20
12408;DHT22;6268;48.188;17.134;2023-05-29T10:56:27;34.60;47.10
12408;DHT22;6268;48.188;17.134;2023-05-29T10:58:58;34.70;47.60
12408;DHT22;6268;48.188;17.134;2023-05-29T11:01:31;34.50;47.60
12408;DHT22;6268;48.188;17.134;2023-05-29T11:04:27;34.40;48.30
12408;DHT22;6268;48.188;17.134;2023-05-29T11:06:59;34.10;47.70
12408;DHT22;6268;48.188;17.134;2023-05-29T11:09:31;33.90;47.70
12408;DHT22;6268;48.188;17.134;2023-05-29T11:12:12;33.90;48.10
12408;DHT22;6268;48.188;17.134;2023-05-29T11:14:45;33.70;48.60
12408;DHT22;6268;48.188;17.134;2023-05-29T11:17:43;33.60;47.80
12408;DHT22;6268;48.188;17.134;2023-05-29T11:20:36;33.50;48.20
12408;DHT22;6268;48.188;17.134;2023-05-29T11:23:05;33.40;49.10
12408;DHT22;6268;48.188;17.134;2023-05-29T11:25:36;33.20;48.50
12408;DHT22;6268;48.188;17.134;2023-05-29T11:28:05;33.00;48.50
12408;DHT22;6268;48.188;17.134;2023-05-29T11:30:45;32.90;47.80
12408;DHT22;6268;48.188;17.134;2023-05-29T11:33:22;32.70;49.60
12408;DHT22;6268;48.188;17.134;2023-05-29T11:35:57;32.50;49.70
12408;DHT22;6268;48.188;17.134;2023-05-29T11:38:26;32.50;50.30
12408;DHT22;6268;48.188;17.134;2023-05-29T11:40:55;32.40;49.80
12408;DHT22;6268;48.188;17.134;2023-05-29T11:43:25;32.50;49.40
12408;DHT22;6268;48.188;17.134;2023-05-29T11:45:54;32.50;49.10
12408;DHT22;6268;48.188;17.134;2023-05-29T11:48:24;32.50;49.40
12408;DHT22;6268;48.188;17.134;2023-05-29T11:50:52;32.40;49.40
12408;DHT22;6268;48.188;17.134;2023-05-29T11:53:21;32.40;50.00
12408;DHT22;6268;48.188;17.134;2023-05-29T11:55:50;32.40;48.90
12408;DHT22;6268;48.188;17.134;2023-05-29T11:58:21;32.30;49.00
12408;DHT22;6268;48.188;17.134;2023-05-29T12:00:50;32.20;49.10
12408;DHT22;6268;48.188;17.134;2023-05-29T12:03:18;32.00;48.70
12408;DHT22;6268;48.188;17.134;2023-05-29T12:05:49;32.00;50.00
12408;DHT22;6268;48.188;17.134;2023-05-29T12:08:23;32.00;49.00
12408;DHT22;6268;48.188;17.134;2023-05-29T12:10:52;32.10;49.70
12408;DHT22;6268;48.188;17.134;2023-05-29T12:13:22;32.10;49.70
12408;DHT22;6268;48.188;17.134;2023-05-29T12:15:54;32.10;49.10
12408;DHT22;6268;48.188;17.134;2023-05-29T12:18:24;32.10;48.50
12408;DHT22;6268;48.188;17.134;2023-05-29T12:20:59;32.20;48.00
12408;DHT22;6268;48.188;17.134;2023-05-29T12:23:28;32.10;47.90
12408;DHT22;6268;48.188;17.134;2023-05-29T12:25:58;31.90;48.60
12408;DHT22;6268;48.188;17.134;2023-05-29T12:28:26;31.70;48.20
12408;DHT22;6268;48.188;17.134;2023-05-29T12:30:58;31.50;48.60
12408;DHT22;6268;48.188;17.134;2023-05-29T12:33:31;31.40;48.70
12408;DHT22;6268;48.188;17.134;2023-05-29T12:36:09;31.30;49.50
12408;DHT22;6268;48.188;17.134;2023-05-29T12:38:46;31.20;49.00
12408;DHT22;6268;48.188;17.134;2023-05-29T12:41:25;31.00;49.10
12408;DHT22;6268;48.188;17.134;2023-05-29T12:43:55;31.20;48.30
12408;DHT22;6268;48.188;17.134;2023-05-29T12:46:25;31.20;47.80
12408;DHT22;6268;48.188;17.134;2023-05-29T12:48:54;31.20;48.00
12408;DHT22;6268;48.188;17.134;2023-05-29T12:51:25;31.10;47.60
12408;DHT22;6268;48.188;17.134;2023-05-29T12:53:54;30.90;47.80
12408;DHT22;6268;48.188;17.134;2023-05-29T12:56:25;30.80;48.00
12408;DHT22;6268;48.188;17.134;2023-05-29T12:58:54;30.70;48.20
12408;DHT22;6268;48.188;17.134;2023-05-29T13:01:22;30.70;48.00
12408;DHT22;6268;48.188;17.134;2023-05-29T13:03:51;30.70;47.90
12408;DHT22;6268;48.188;17.134;2023-05-29T13:06:20;30.70;48.10
12408;DHT22;6268;48.188;17.134;2023-05-29T13:08:50;30.70;48.30
12408;DHT22;6268;48.188;17.134;2023-05-29T13:11:18;30.70;47.90
12408;DHT22;6268;48.188;17.134;2023-05-29T13:13:47;30.70;48.30
12408;DHT22;6268;48.188;17.134;2023-05-29T13:16:15;30.70;47.60
12408;DHT22;6268;48.188;17.134;2023-05-29T13:18:45;30.50;47.50
12408;DHT22;6268;48.188;17.134;2023-05-29T13:21:14;30.30;47.80
12408;DHT22;6268;48.188;17.134;2023-05-29T13:23:42;30.30;48.80
12408;DHT22;6268;48.188;17.134;2023-05-29T13:26:12;30.30;48.30
12408;DHT22;6268;48.188;17.134;2023-05-29T13:28:40;30.40;47.90
12408;DHT22;6268;48.188;17.134;2023-05-29T13:31:09;30.20;47.60
12408;DHT22;6268;48.188;17.134;2023-05-29T13:33:37;30.10;47.80
12408;DHT22;6268;48.188;17.134;2023-05-29T13:36:07;30.10;47.80
12408;DHT22;6268;48.188;17.134;2023-05-29T13:38:35;30.00;48.50
12408;DHT22;6268;48.188;17.134;2023-05-29T13:41:04;30.00;52.70
12408;DHT22;6268;48.188;17.134;2023-05-29T13:43:34;30.10;50.10
12408;DHT22;6268;48.188;17.134;2023-05-29T13:46:11;30.10;49.40
12408;DHT22;6268;48.188;17.134;2023-05-29T13:48:40;30.10;50.10
12408;DHT22;6268;48.188;17.134;2023-05-29T13:51:08;30.20;50.10
12408;DHT22;6268;48.188;17.134;2023-05-29T13:53:37;30.20;48.90
12408;DHT22;6268;48.188;17.134;2023-05-29T13:56:05;30.10;49.80
12408;DHT22;6268;48.188;17.134;2023-05-29T13:58:35;30.10;49.10
12408;DHT22;6268;48.188;17.134;2023-05-29T14:01:04;30.10;48.50
12408;DHT22;6268;48.188;17.134;2023-05-29T14:03:32;30.00;49.20
12408;DHT22;6268;48.188;17.134;2023-05-29T14:06:02;30.00;48.60
